PINE FLAT DAM (PNF)

Elevation: 970' · KINGS R basin · Operator: US Army Corps of Engineers

Provisional data, subject to change.
Query executed Thursday at 9:28:37   clock

Select a sensor type for a plot of data.
Note: Reservoir Flows are daily averages.

Earlier

Date RES ELE    STORAGE    RES CHG    TOC STO    ABV TOC    OUTFLOW    INFLOW    FNF    PPT INC    PPTINC4    TEMP MN    TEMP MX    WINDLEN    EVP PAN   
 FEET   AF   AF   AF   AF   CFS   CFS   CFS   INCHES   INCHES   DEG F   DEG F   MILES   INCHES  
06/03/2015 785.24 270289 1385 1000000 -729711 660 1382 1435 0.00 0.00 -- -- 59 0.26
06/04/2015 785.72 271708 1419 1000000 -728292 608 1347 1389 0.00 0.00 -- -- 55 0.26
06/05/2015 786.13 272923 1215 1000000 -727077 531 1164 1174 0.00 0.00 -- -- 44 0.23
06/06/2015 786.46 273903 980 1000000 -726097 502 1017 1056 0.00 0.00 -- -- 55 0.24
06/07/2015 786.78 274855 952 1000000 -725145 507 1015 1011 0.00 0.00 -- -- 63 0.30
06/08/2015 787.11 275839 984 1000000 -724161 540 1066 1060 0.00 0.00 -- -- 71 0.33
06/09/2015 787.31 276436 597 1000000 -723564 660 979 995 0.00 0.01 -- -- 57 0.19
06/10/2015 787.54 277124 688 1000000 -722876 687 1058 1034 0.00 0.00 -- -- 59 0.27
06/11/2015 787.92 278262 1138 1000000 -721738 699 1299 1379 0.00 0.00 -- -- 56 0.28
06/12/2015 788.30 279402 1140 1000000 -720598 778 1375 1414 0.00 0.00 -- -- 49 0.25
06/13/2015 788.57 280214 812 1000000 -719786 820 1260 1369 0.00 0.00 -- -- 76 0.34
06/14/2015 788.90 281207 993 1000000 -718793 889 1419 1509 0.00 0.00 -- -- 63 0.32
06/15/2015 789.07 281720 513 1000000 -718280 977 1264 1259 0.00 0.00 -- -- 54 0.31
06/16/2015 789.08 281750 30 1000000 -718250 1046 1089 1079 0.00 0.00 -- -- 56 0.30
06/17/2015 788.95 281358 -392 1000000 -718642 1079 909 1055 0.00 0.00 -- -- 55 0.30
06/18/2015 788.77 280816 -542 1000000 -719184 1083 839 760 0.00 0.00 -- -- 57 0.31
06/19/2015 788.54 280123 -693 1000000 -719877 1083 761 733 0.00 0.00 -- -- 53 0.30
06/20/2015 788.28 279342 -781 1000000 -720658 1096 730 756 0.00 0.00 -- -- 55 0.30
06/21/2015 787.95 278352 -990 1000000 -- 1090 619 603 0.00 0.00 -- -- 59 0.31
06/22/2015 787.62 277363 -989 1000000 -722637 1096 623 551 0.00 0.00 -- -- 51 0.29
06/23/2015 787.23 276197 -1166 1000000 -723803 1103 542 510 0.00 0.00 -- -- 53 0.29
06/24/2015 786.82 274975 -1222 1000000 -725025 1118 529 526 0.00 0.00 -- -- 53 0.30
06/25/2015 786.40 273725 -1250 1000000 -726275 1128 526 486 0.00 0.00 -- -- 53 0.31
06/26/2015 785.93 272330 -1395 1000000 -- 1168 491 382 0.00 0.00 -- -- 48 0.29
06/27/2015 785.41 270791 -1539 1000000 -- 1201 450 455 0.00 0.00 -- -- 47 0.27
06/28/2015 784.88 269228 -1563 1000000 -- 1219 449 1080 0.00 0.00 -- -- 50 0.20
06/29/2015 784.34 267640 -1588 1000000 -732360 1437 657 -362 0.00 0.00 -- -- 55 0.23
06/30/2015 783.92 266408 -1232 -- -- 1279 683 -- 0.00 0.00 -- -- 50 0.27
07/01/2015 783.79 266027 -381 -- -- 995 818 -- 0.00 0.00 -- -- 42 0.15
07/02/2015 -- -- -- -- -- -- -- -- -- 0.00 -- -- -- --

Later | Latest

Warning! This data is preliminary and subject to revision.

Show PNF Map | Plot PNF Data | 1 Month PNF Data | Real-Time PNF Data | PNF Info